createdAt,value
2022-11-26T00:02:20.419Z,9.61
2022-11-26T00:06:39.687Z,9.67
2022-11-26T00:10:42.161Z,9.78
2022-11-26T00:14:44.271Z,9.70
2022-11-26T00:18:46.696Z,9.66
2022-11-26T00:22:54.400Z,9.66
2022-11-26T00:27:01.778Z,9.65
2022-11-26T00:31:14.424Z,9.64
2022-11-26T00:35:17.141Z,9.57
2022-11-26T00:39:23.293Z,9.54
2022-11-26T00:43:25.452Z,9.45
2022-11-26T00:47:27.614Z,9.44
2022-11-26T00:51:29.759Z,9.39
2022-11-26T00:55:41.169Z,9.40
2022-11-26T00:59:43.559Z,9.41
2022-11-26T01:03:45.629Z,9.43
2022-11-26T01:07:48.263Z,9.41
2022-11-26T01:11:54.255Z,9.48
2022-11-26T01:15:58.259Z,9.52
2022-11-26T01:20:00.292Z,9.45
2022-11-26T01:24:05.160Z,9.47
2022-11-26T01:28:12.666Z,9.54
2022-11-26T01:32:14.708Z,9.52
2022-11-26T01:36:32.879Z,9.48
2022-11-26T01:40:38.049Z,9.49
2022-11-26T01:44:40.767Z,9.53
2022-11-26T01:48:43.973Z,9.53
2022-11-26T01:52:46.769Z,9.53
2022-11-26T01:56:52.494Z,9.59
2022-11-26T02:00:54.819Z,9.61
2022-11-26T02:05:12.083Z,9.62
2022-11-26T02:09:15.033Z,9.60
2022-11-26T02:13:17.390Z,9.60
2022-11-26T02:17:22.307Z,9.57
2022-11-26T02:21:28.235Z,9.46
2022-11-26T02:25:30.367Z,9.40
2022-11-26T02:30:15.287Z,9.38
2022-11-26T02:34:21.652Z,9.50
2022-11-26T02:38:26.628Z,9.49
2022-11-26T02:42:31.507Z,9.43
2022-11-26T02:46:36.336Z,9.48
2022-11-26T02:50:42.953Z,9.54
2022-11-26T02:54:45.840Z,9.61
2022-11-26T02:58:50.789Z,9.73
2022-11-26T03:03:17.185Z,9.85
2022-11-26T03:07:20.262Z,9.91
2022-11-26T03:11:25.138Z,9.99
2022-11-26T03:15:28.705Z,10.03
2022-11-26T03:19:30.867Z,10.06
2022-11-26T03:23:32.928Z,10.02
2022-11-26T03:27:35.001Z,10.01
2022-11-26T03:31:37.236Z,9.97
2022-11-26T03:35:39.336Z,9.90
2022-11-26T03:39:41.859Z,9.75
2022-11-26T03:43:44.068Z,9.66
2022-11-26T03:47:46.492Z,9.54
2022-11-26T03:51:48.502Z,9.36
2022-11-26T03:55:50.689Z,9.44
2022-11-26T03:59:52.803Z,9.68
2022-11-26T04:03:54.818Z,9.95
2022-11-26T04:07:56.826Z,10.05
2022-11-26T04:11:58.945Z,10.16
2022-11-26T04:16:01.236Z,10.24
2022-11-26T04:20:04.192Z,10.29
2022-11-26T04:24:07.467Z,10.29
2022-11-26T04:28:09.692Z,10.53
2022-11-26T04:32:11.986Z,10.53
2022-11-26T04:36:14.000Z,10.55
2022-11-26T04:40:17.171Z,10.69
2022-11-26T04:44:19.222Z,10.72
2022-11-26T04:48:21.262Z,10.61
2022-11-26T04:52:23.518Z,10.67
2022-11-26T04:56:26.559Z,10.71
2022-11-26T05:00:28.914Z,10.66
2022-11-26T05:04:31.977Z,10.56
2022-11-26T05:08:33.953Z,10.49
2022-11-26T05:12:36.368Z,10.54
2022-11-26T05:16:38.556Z,10.57
2022-11-26T05:20:40.748Z,10.57
2022-11-26T05:24:42.926Z,10.70
2022-11-26T05:28:45.018Z,10.61
2022-11-26T05:32:47.393Z,10.65
2022-11-26T05:36:49.874Z,10.71
2022-11-26T05:40:55.132Z,10.71
2022-11-26T05:44:57.427Z,10.87
2022-11-26T05:48:59.525Z,10.81
2022-11-26T05:53:01.633Z,10.91
2022-11-26T05:57:03.662Z,10.84
2022-11-26T06:01:09.664Z,10.75
2022-11-26T06:05:12.058Z,10.70
2022-11-26T06:09:14.360Z,10.68
2022-11-26T06:13:16.753Z,10.75
2022-11-26T06:17:19.760Z,10.67
2022-11-26T06:21:21.950Z,10.65
2022-11-26T06:25:24.042Z,10.64
2022-11-26T06:29:28.097Z,10.64
2022-11-26T06:33:30.891Z,10.75
2022-11-26T06:37:33.538Z,10.79
2022-11-26T06:41:35.660Z,10.79
2022-11-26T06:45:39.223Z,10.87
2022-11-26T06:49:45.060Z,10.93
2022-11-26T06:53:47.204Z,10.86
2022-11-26T06:57:52.725Z,10.85
2022-11-26T07:01:57.938Z,10.78
2022-11-26T07:06:00.036Z,10.66
2022-11-26T07:10:02.030Z,10.69
2022-11-26T07:14:04.276Z,10.71
2022-11-26T07:18:06.374Z,10.76
2022-11-26T07:22:08.363Z,10.83
2022-11-26T07:26:12.281Z,10.96
2022-11-26T07:30:14.620Z,11.08
2022-11-26T07:34:16.839Z,11.03
2022-11-26T07:38:18.971Z,11.01
2022-11-26T07:42:21.452Z,10.93
2022-11-26T07:46:25.634Z,10.88
2022-11-26T07:50:27.732Z,10.98
2022-11-26T07:54:29.899Z,11.11
2022-11-26T07:58:32.934Z,11.25
2022-11-26T08:02:34.980Z,11.33
2022-11-26T08:06:37.157Z,11.38
2022-11-26T08:10:39.972Z,11.48
2022-11-26T08:14:42.137Z,11.48
2022-11-26T08:18:44.132Z,11.58
2022-11-26T08:22:46.125Z,11.67
2022-11-26T08:26:48.238Z,11.75
2022-11-26T08:30:50.222Z,11.87
2022-11-26T08:34:52.362Z,12.03
2022-11-26T08:38:54.502Z,12.11
2022-11-26T08:42:56.606Z,12.21
2022-11-26T08:46:58.762Z,12.29
2022-11-26T08:51:09.581Z,12.42
2022-11-26T08:55:11.679Z,12.26
2022-11-26T08:59:13.986Z,11.74
2022-11-26T09:03:16.403Z,11.53
2022-11-26T09:07:18.531Z,11.53
2022-11-26T09:11:20.637Z,10.49
2022-11-26T09:15:22.858Z,9.99
2022-11-26T09:19:25.257Z,9.89
2022-11-26T09:23:27.320Z,9.81
2022-11-26T09:27:32.669Z,9.71
2022-11-26T09:31:34.971Z,9.74
2022-11-26T09:35:37.403Z,9.88
2022-11-26T09:39:39.544Z,9.99
2022-11-26T09:44:19.232Z,10.10
2022-11-26T09:48:25.186Z,10.23
2022-11-26T09:52:34.296Z,10.42
2022-11-26T09:56:37.971Z,10.65
2022-11-26T10:00:44.907Z,10.90
2022-11-26T10:04:48.744Z,11.06
2022-11-26T10:08:59.405Z,11.13
2022-11-26T10:13:19.739Z,11.11
2022-11-26T10:17:52.958Z,11.05
2022-11-26T10:22:00.860Z,11.02
2022-11-26T10:26:07.890Z,11.25
2022-11-26T10:30:16.739Z,11.49
2022-11-26T10:34:28.360Z,11.75
2022-11-26T10:38:31.710Z,11.86
2022-11-26T10:42:49.264Z,12.03
2022-11-26T10:46:51.302Z,12.28
2022-11-26T10:51:13.711Z,12.33
2022-11-26T10:55:34.474Z,12.13
2022-11-26T10:59:53.501Z,12.13
2022-11-26T11:04:13.883Z,12.13
2022-11-26T11:08:29.575Z,12.23
2022-11-26T11:12:32.151Z,12.28
2022-11-26T11:16:46.311Z,12.13
2022-11-26T11:20:51.380Z,12.05
2022-11-26T11:24:58.365Z,11.97
2022-11-26T11:29:00.705Z,11.85
2022-11-26T11:33:20.599Z,11.66
2022-11-26T11:37:22.736Z,11.37
2022-11-26T11:41:34.262Z,10.86
2022-11-26T11:46:13.261Z,10.79
2022-11-26T11:50:36.157Z,10.60
2022-11-26T11:54:57.029Z,10.62
2022-11-26T11:59:21.708Z,10.84
2022-11-26T12:03:43.597Z,11.03
2022-11-26T12:08:10.038Z,11.15
2022-11-26T12:12:24.207Z,11.35
2022-11-26T12:16:30.866Z,11.66
2022-11-26T12:20:45.035Z,11.97
2022-11-26T12:24:54.373Z,12.14
2022-11-26T12:29:04.675Z,12.07
2022-11-26T12:33:23.488Z,12.06
2022-11-26T12:37:29.064Z,12.14
2022-11-26T12:41:41.216Z,12.27
2022-11-26T12:46:00.142Z,12.27
2022-11-26T12:50:05.764Z,12.37
2022-11-26T12:54:23.995Z,12.02
2022-11-26T12:58:41.374Z,12.08
2022-11-26T13:02:48.015Z,12.19
2022-11-26T13:07:28.485Z,12.05
2022-11-26T13:11:48.731Z,11.94
2022-11-26T13:16:20.212Z,12.04
2022-11-26T13:20:41.187Z,12.00
2022-11-26T13:24:49.366Z,12.11
2022-11-26T13:29:12.703Z,12.08
2022-11-26T13:33:29.928Z,12.01
2022-11-26T13:37:55.105Z,11.98
2022-11-26T13:42:09.090Z,12.09
2022-11-26T13:46:22.510Z,12.16
2022-11-26T13:50:35.701Z,12.31
2022-11-26T13:54:56.418Z,12.34
2022-11-26T13:59:05.197Z,12.38
2022-11-26T14:03:09.469Z,12.52
2022-11-26T14:07:11.429Z,12.54
2022-11-26T14:11:45.278Z,12.45
2022-11-26T14:16:10.602Z,12.35
2022-11-26T14:20:15.554Z,12.34
2022-11-26T14:25:00.626Z,12.33
2022-11-26T14:29:14.098Z,12.25
2022-11-26T14:33:19.008Z,12.14
2022-11-26T14:37:28.907Z,12.21
2022-11-26T14:42:05.638Z,12.25
2022-11-26T14:46:16.584Z,12.25
2022-11-26T14:50:21.506Z,12.18
2022-11-26T14:54:35.149Z,12.11
2022-11-26T14:58:42.683Z,12.17
2022-11-26T15:02:46.120Z,12.24
2022-11-26T15:06:49.133Z,12.06
2022-11-26T15:10:57.255Z,12.03
2022-11-26T15:15:02.500Z,11.97
2022-11-26T15:19:06.695Z,11.95
2022-11-26T15:23:18.614Z,11.41
2022-11-26T15:27:34.950Z,10.99
2022-11-26T15:31:42.061Z,10.60
2022-11-26T15:35:44.075Z,10.58
2022-11-26T15:39:46.201Z,10.52
2022-11-26T15:43:54.089Z,10.38
2022-11-26T15:47:56.502Z,10.41
2022-11-26T15:52:04.381Z,10.40
2022-11-26T15:56:08.518Z,10.30
2022-11-26T16:00:29.313Z,10.40
2022-11-26T16:04:48.622Z,10.44
2022-11-26T16:08:59.678Z,10.63
2022-11-26T16:13:18.788Z,10.54
2022-11-26T16:17:21.500Z,10.61
2022-11-26T16:21:30.529Z,10.80
2022-11-26T16:25:34.743Z,10.84
2022-11-26T16:29:37.091Z,10.86
2022-11-26T16:33:39.903Z,10.93
2022-11-26T16:37:45.177Z,10.97
2022-11-26T16:41:47.247Z,10.91
2022-11-26T16:45:53.391Z,10.80
2022-11-26T16:49:56.113Z,10.94
2022-11-26T16:53:58.326Z,10.83
2022-11-26T16:58:01.502Z,10.87
2022-11-26T17:02:03.839Z,10.79
2022-11-26T17:06:25.775Z,10.74
2022-11-26T17:10:31.418Z,10.75
2022-11-26T17:14:33.654Z,10.53
2022-11-26T17:18:35.731Z,10.63
2022-11-26T17:22:37.726Z,10.67
2022-11-26T17:26:39.812Z,10.61
2022-11-26T17:30:44.020Z,10.70
2022-11-26T17:34:47.329Z,10.53
2022-11-26T17:38:50.463Z,10.48
2022-11-26T17:42:52.919Z,10.58
2022-11-26T17:51:19.700Z,10.63
2022-11-26T17:55:24.267Z,10.71
2022-11-26T17:59:26.507Z,10.69
2022-11-26T18:03:28.889Z,10.85
2022-11-26T18:07:31.514Z,10.74
2022-11-26T18:12:00.871Z,10.74
2022-11-26T18:16:03.553Z,10.86
2022-11-26T18:20:06.554Z,10.84
2022-11-26T18:24:12.084Z,10.70
2022-11-26T18:28:16.662Z,10.51
2022-11-26T18:32:18.666Z,10.47
2022-11-26T18:36:20.795Z,10.43
2022-11-26T18:40:23.188Z,10.46
2022-11-26T18:44:25.790Z,10.56
2022-11-26T18:48:27.911Z,10.46
2022-11-26T18:52:33.170Z,10.44
2022-11-26T18:56:35.671Z,10.37
2022-11-26T19:00:38.360Z,10.40
2022-11-26T19:04:40.634Z,10.32
2022-11-26T19:08:43.652Z,10.30
2022-11-26T19:12:48.168Z,10.24
2022-11-26T19:16:53.324Z,10.25
2022-11-26T19:20:56.398Z,10.26
2022-11-26T19:24:58.602Z,10.35
2022-11-26T19:29:04.013Z,10.22
2022-11-26T19:33:06.417Z,10.27
2022-11-26T19:37:11.743Z,10.27
2022-11-26T19:41:14.515Z,10.23
2022-11-26T19:45:16.824Z,10.33
2022-11-26T19:49:18.949Z,10.23
2022-11-26T19:53:24.788Z,10.31
2022-11-26T19:57:27.392Z,10.27
2022-11-26T20:01:31.756Z,10.23
2022-11-26T20:05:36.184Z,10.23
2022-11-26T20:09:38.552Z,10.18
2022-11-26T20:13:45.225Z,10.20
2022-11-26T20:17:47.734Z,10.15
2022-11-26T20:21:50.662Z,10.03
2022-11-26T20:25:53.603Z,10.04
2022-11-26T20:29:56.227Z,9.99
2022-11-26T20:33:58.515Z,10.08
2022-11-26T20:38:00.621Z,10.06
2022-11-26T20:42:02.832Z,10.00
2022-11-26T20:46:06.972Z,10.09
2022-11-26T20:50:10.880Z,10.05
2022-11-26T20:54:13.389Z,9.93
2022-11-26T20:58:15.439Z,9.94
2022-11-26T21:02:17.542Z,9.92
2022-11-26T21:06:28.999Z,9.89
2022-11-26T21:10:31.534Z,9.80
2022-11-26T21:14:33.911Z,9.90
2022-11-26T21:18:36.414Z,9.83
2022-11-26T21:22:40.875Z,9.90
2022-11-26T21:26:56.743Z,9.85
2022-11-26T21:31:27.030Z,9.89
2022-11-26T21:35:36.068Z,9.94
2022-11-26T21:39:44.319Z,10.02
2022-11-26T21:43:48.067Z,10.04
2022-11-26T21:47:51.531Z,9.88
2022-11-26T21:51:54.024Z,9.88
2022-11-26T21:55:56.355Z,9.93
2022-11-26T21:59:58.343Z,9.94
2022-11-26T22:04:04.625Z,9.88
2022-11-26T22:08:06.868Z,9.85
2022-11-26T22:12:09.081Z,9.93
2022-11-26T22:16:17.033Z,9.93
2022-11-26T22:20:19.361Z,9.71
2022-11-26T22:24:22.194Z,9.82
2022-11-26T22:28:29.698Z,9.79
2022-11-26T22:32:32.109Z,9.74
2022-11-26T22:36:34.685Z,9.76
2022-11-26T22:40:36.857Z,9.83
2022-11-26T22:44:38.908Z,9.86
2022-11-26T22:48:42.550Z,9.79
2022-11-26T22:52:44.648Z,9.67
2022-11-26T22:56:47.044Z,9.64
2022-11-26T23:00:52.666Z,9.67
2022-11-26T23:04:55.896Z,9.76
2022-11-26T23:09:03.467Z,9.64
2022-11-26T23:13:06.890Z,9.55
2022-11-26T23:17:10.176Z,9.46
2022-11-26T23:21:24.613Z,9.40
2022-11-26T23:25:26.650Z,9.47
2022-11-26T23:29:28.989Z,9.38
2022-11-26T23:33:31.902Z,9.35
2022-11-26T23:37:33.970Z,9.27
2022-11-26T23:41:36.657Z,9.25
2022-11-26T23:45:38.608Z,9.19
2022-11-26T23:49:40.744Z,9.14
2022-11-26T23:53:45.197Z,9.20
2022-11-26T23:57:47.325Z,9.20
